Auburn University, Alabama
Current Conditions -  °F | °C
As of 8:55 AM on Wednesday 26 Nov 2014 (Local Time) from KAUO Reporting Station
Clear Clear  
Wind Chill: 38°   Ceiling: Unl
Heat Index: 45°   Visibility: 10mi
Dew Point: 27°   Wind: 14mph
Humidity: 49%   Direction: 300°WNW
Pressure: 30.19"   Gusts: 18mph
Location:  32.61°N, 85.48°W
Report Text: KAUO 261455Z AUTO 30012G16KT 10SM CLR 07/M03 A3019 RMK AO1 52030
Loading
Personal Weather Stations






























Interactive Weather Map New forecast layout! Learn more

10-Day Weather Forecast

Advertisements
Track Severe Weather on mobile